createdAt,value
2023-02-08T00:01:23.919Z,1.14
2023-02-08T00:03:52.348Z,1.23
2023-02-08T00:06:20.457Z,1.25
2023-02-08T00:08:48.034Z,1.26
2023-02-08T00:11:15.349Z,1.31
2023-02-08T00:13:43.146Z,1.30
2023-02-08T00:16:13.313Z,1.29
2023-02-08T00:18:41.648Z,1.30
2023-02-08T00:21:15.629Z,1.23
2023-02-08T00:23:43.623Z,1.19
2023-02-08T00:26:11.266Z,1.12
2023-02-08T00:28:38.845Z,1.07
2023-02-08T00:31:06.958Z,1.10
2023-02-08T00:33:34.668Z,1.14
2023-02-08T00:36:05.524Z,1.12
2023-02-08T00:38:33.747Z,1.09
2023-02-08T00:41:01.336Z,1.10
2023-02-08T00:43:29.233Z,1.10
2023-02-08T00:45:59.369Z,1.02
2023-02-08T00:48:28.239Z,1.05
2023-02-08T00:51:05.125Z,0.99
2023-02-08T00:53:40.864Z,1.04
2023-02-08T00:56:09.840Z,1.03
2023-02-08T00:58:38.142Z,0.99
2023-02-08T01:01:07.826Z,1.05
2023-02-08T01:03:39.426Z,1.09
2023-02-08T01:06:11.228Z,1.14
2023-02-08T01:08:38.969Z,1.11
2023-02-08T01:11:10.815Z,1.16
2023-02-08T01:13:39.993Z,1.06
2023-02-08T01:16:21.285Z,1.05
2023-02-08T01:18:53.179Z,1.10
2023-02-08T01:21:25.150Z,1.16
2023-02-08T01:23:53.560Z,1.19
2023-02-08T01:26:22.996Z,1.24
2023-02-08T01:28:51.981Z,1.26
2023-02-08T01:31:24.431Z,1.26
2023-02-08T01:33:52.191Z,1.30
2023-02-08T01:36:19.785Z,1.33
2023-02-08T01:38:48.499Z,1.31
2023-02-08T01:41:26.372Z,1.27
2023-02-08T01:44:11.488Z,1.22
2023-02-08T01:46:42.460Z,1.24
2023-02-08T01:49:37.987Z,1.24
2023-02-08T01:52:20.939Z,1.26
2023-02-08T01:55:23.050Z,1.28
2023-02-08T01:57:56.569Z,1.30
2023-02-08T02:00:25.068Z,1.32
2023-02-08T02:02:56.909Z,1.29
2023-02-08T02:05:32.650Z,1.31
2023-02-08T02:08:00.671Z,1.28
2023-02-08T02:10:33.231Z,1.32
2023-02-08T02:13:13.784Z,1.34
2023-02-08T02:15:44.321Z,1.37
2023-02-08T02:18:18.043Z,1.38
2023-02-08T02:20:48.299Z,1.36
2023-02-08T02:23:53.517Z,1.34
2023-02-08T02:26:35.868Z,1.24
2023-02-08T02:29:14.680Z,1.15
2023-02-08T02:32:16.152Z,1.06
2023-02-08T02:35:26.259Z,0.85
2023-02-08T02:38:05.634Z,0.85
2023-02-08T02:41:14.225Z,0.83
2023-02-08T02:43:58.993Z,0.69
2023-02-08T02:46:43.814Z,0.70
2023-02-08T02:49:26.411Z,0.66
2023-02-08T02:52:27.936Z,0.46
2023-02-08T02:55:07.784Z,0.45
2023-02-08T02:57:36.696Z,0.39
2023-02-08T03:00:14.117Z,0.34
2023-02-08T03:02:42.233Z,0.30
2023-02-08T03:05:12.403Z,0.30
2023-02-08T03:08:07.236Z,0.18
2023-02-08T03:11:08.286Z,0.22
2023-02-08T03:14:12.030Z,0.14
2023-02-08T03:17:19.702Z,0.24
2023-02-08T03:19:57.059Z,0.19
2023-02-08T03:22:44.503Z,0.03
2023-02-08T03:25:27.667Z,0.14
2023-02-08T03:28:41.490Z,0.14
2023-02-08T03:31:42.077Z,0.20
2023-02-08T03:34:18.544Z,0.34
2023-02-08T03:37:04.470Z,0.22
2023-02-08T03:39:34.876Z,0.22
2023-02-08T03:42:12.461Z,0.20
2023-02-08T03:44:48.411Z,0.11
2023-02-08T03:47:25.141Z,0.26
2023-02-08T03:49:57.531Z,0.26
2023-02-08T03:52:26.703Z,0.21
2023-02-08T03:55:18.822Z,0.05
2023-02-08T03:58:26.260Z,0.11
2023-02-08T04:01:03.975Z,0.10
2023-02-08T04:03:34.051Z,0.09
2023-02-08T04:06:02.122Z,0.25
2023-02-08T04:08:29.476Z,0.37
2023-02-08T04:10:58.345Z,0.25
2023-02-08T04:13:27.131Z,0.21
2023-02-08T04:15:54.733Z,0.31
2023-02-08T04:18:22.638Z,0.40
2023-02-08T04:20:50.138Z,0.33
2023-02-08T04:23:17.399Z,0.33
2023-02-08T04:25:44.906Z,0.36
2023-02-08T04:28:12.253Z,0.45
2023-02-08T04:30:40.225Z,0.52
2023-02-08T04:33:07.687Z,0.46
2023-02-08T04:35:35.301Z,0.40
2023-02-08T04:38:02.572Z,0.55
2023-02-08T04:40:31.205Z,0.32
2023-02-08T04:42:58.562Z,0.27
2023-02-08T04:45:27.177Z,0.26
2023-02-08T04:47:54.449Z,0.27
2023-02-08T04:50:22.107Z,0.17
2023-02-08T04:52:49.331Z,0.15
2023-02-08T04:55:16.997Z,0.27
2023-02-08T04:57:44.249Z,0.28
2023-02-08T05:00:12.956Z,0.24
2023-02-08T05:02:40.229Z,0.21
2023-02-08T05:05:08.112Z,0.28
2023-02-08T05:07:35.401Z,0.21
2023-02-08T05:10:05.155Z,0.20
2023-02-08T05:12:32.511Z,0.24
2023-02-08T05:15:00.078Z,0.24
2023-02-08T05:17:27.354Z,0.22
2023-02-08T05:19:54.970Z,0.12
2023-02-08T05:22:22.315Z,0.33
2023-02-08T05:24:49.940Z,0.37
2023-02-08T05:27:17.256Z,0.26
2023-02-08T05:29:44.816Z,0.12
2023-02-08T05:32:13.094Z,0.17
2023-02-08T05:34:40.686Z,0.13
2023-02-08T05:37:08.047Z,0.31
2023-02-08T05:39:35.634Z,0.26
2023-02-08T05:42:02.987Z,0.16
2023-02-08T05:44:30.658Z,0.15
2023-02-08T05:46:57.929Z,0.19
2023-02-08T05:49:25.679Z,0.13
2023-02-08T05:51:53.328Z,0.30
2023-02-08T05:54:20.982Z,0.17
2023-02-08T05:56:48.369Z,0.16
2023-02-08T05:59:15.972Z,0.18
2023-02-08T06:01:43.229Z,0.16
2023-02-08T06:04:11.208Z,0.10
2023-02-08T06:06:38.553Z,0.19
2023-02-08T06:09:06.116Z,0.10
2023-02-08T06:11:34.202Z,0.14
2023-02-08T06:14:02.336Z,0.20
2023-02-08T06:16:30.064Z,0.24
2023-02-08T06:18:57.803Z,0.22
2023-02-08T06:21:25.119Z,0.23
2023-02-08T06:23:52.621Z,0.26
2023-02-08T06:26:20.051Z,0.19
2023-02-08T06:28:47.663Z,0.19
2023-02-08T06:31:14.930Z,0.37
2023-02-08T06:33:42.577Z,0.54
2023-02-08T06:36:10.031Z,0.33
2023-02-08T06:38:37.662Z,0.33
2023-02-08T06:41:05.117Z,0.40
2023-02-08T06:43:35.424Z,0.43
2023-02-08T06:46:05.029Z,0.63
2023-02-08T06:48:32.639Z,0.51
2023-02-08T06:50:59.992Z,0.56
2023-02-08T06:53:27.836Z,0.54
2023-02-08T06:55:55.417Z,0.46
2023-02-08T06:58:23.051Z,0.58
2023-02-08T07:00:50.448Z,0.75
2023-02-08T07:03:18.083Z,0.87
2023-02-08T07:06:02.522Z,1.09
2023-02-08T07:08:34.188Z,1.05
2023-02-08T07:11:11.787Z,1.00
2023-02-08T07:13:39.874Z,0.97
2023-02-08T07:16:09.900Z,0.84
2023-02-08T07:18:37.669Z,1.04
2023-02-08T07:21:05.387Z,1.04
2023-02-08T07:23:33.230Z,1.20
2023-02-08T07:26:07.664Z,1.51
2023-02-08T07:28:36.525Z,1.49
2023-02-08T07:31:13.808Z,1.42
2023-02-08T07:33:41.708Z,1.46
2023-02-08T07:36:10.857Z,1.34
2023-02-08T07:38:39.713Z,1.39
2023-02-08T07:41:10.815Z,1.52
2023-02-08T07:43:40.493Z,1.55
2023-02-08T07:46:17.206Z,1.70
2023-02-08T07:48:45.164Z,1.53
2023-02-08T07:51:13.497Z,1.68
2023-02-08T07:53:41.265Z,1.82
2023-02-08T07:56:14.643Z,2.10
2023-02-08T07:58:42.251Z,2.32
2023-02-08T08:01:21.516Z,2.76
2023-02-08T08:03:53.914Z,3.22
2023-02-08T08:06:22.870Z,3.61
2023-02-08T08:08:51.308Z,3.88
2023-02-08T08:11:20.776Z,3.93
2023-02-08T08:13:48.750Z,4.13
2023-02-08T08:16:16.463Z,4.27
2023-02-08T08:18:44.763Z,4.61
2023-02-08T08:21:13.177Z,4.51
2023-02-08T08:23:41.094Z,4.97
2023-02-08T08:26:18.302Z,5.31
2023-02-08T08:28:46.962Z,5.39
2023-02-08T08:31:18.663Z,5.63
2023-02-08T08:33:47.087Z,5.75
2023-02-08T08:36:15.379Z,5.78
2023-02-08T08:38:42.928Z,6.32
2023-02-08T08:41:14.929Z,7.68
2023-02-08T08:43:42.858Z,9.61
2023-02-08T08:46:10.751Z,10.77
2023-02-08T08:48:39.085Z,11.17
2023-02-08T08:51:07.188Z,10.61
2023-02-08T08:53:35.258Z,9.19
2023-02-08T08:56:03.252Z,9.16
2023-02-08T08:58:30.977Z,12.97
2023-02-08T09:01:00.352Z,12.41
2023-02-08T09:03:29.586Z,11.61
2023-02-08T09:05:57.296Z,11.08
2023-02-08T09:08:24.968Z,11.80
2023-02-08T09:10:52.353Z,11.31
2023-02-08T09:13:21.363Z,11.14
2023-02-08T09:15:50.132Z,10.42
2023-02-08T09:18:18.007Z,12.58
2023-02-08T09:20:45.738Z,16.86
2023-02-08T09:23:14.637Z,19.91
2023-02-08T09:25:42.130Z,22.01
2023-02-08T09:28:10.999Z,24.22
2023-02-08T09:30:38.345Z,23.86
2023-02-08T09:33:05.979Z,19.64
2023-02-08T09:35:33.447Z,19.49
2023-02-08T09:38:04.598Z,17.54
2023-02-08T09:40:52.038Z,20.99
2023-02-08T09:43:41.953Z,19.43
2023-02-08T09:46:18.466Z,23.31
2023-02-08T09:48:50.615Z,26.41
2023-02-08T09:51:50.085Z,27.09
2023-02-08T09:54:28.834Z,28.59
2023-02-08T09:56:59.897Z,28.47
2023-02-08T09:59:32.583Z,27.68
2023-02-08T10:02:31.460Z,28.74
2023-02-08T10:05:01.894Z,29.61
2023-02-08T10:07:31.174Z,31.10
2023-02-08T10:10:08.352Z,31.17
2023-02-08T10:12:55.019Z,30.03
2023-02-08T10:15:46.408Z,27.76
2023-02-08T10:18:47.136Z,27.98
2023-02-08T10:21:54.792Z,28.93
2023-02-08T10:24:36.930Z,24.26
2023-02-08T10:27:16.309Z,22.39
2023-02-08T10:30:45.416Z,18.92
2023-02-08T10:33:35.811Z,23.21
2023-02-08T10:36:12.203Z,24.39
2023-02-08T10:38:46.682Z,22.98
2023-02-08T10:41:32.492Z,19.15
2023-02-08T10:44:30.627Z,16.27
2023-02-08T10:47:06.885Z,15.40
2023-02-08T10:50:00.065Z,13.88
2023-02-08T10:52:28.085Z,12.88
2023-02-08T10:54:59.168Z,12.80
2023-02-08T10:57:35.673Z,12.08
2023-02-08T11:00:21.436Z,14.32
2023-02-08T11:02:53.237Z,14.28
2023-02-08T11:05:38.962Z,14.72
2023-02-08T11:08:20.758Z,12.88
2023-02-08T11:11:10.481Z,12.39
2023-02-08T11:13:51.510Z,14.04
2023-02-08T11:16:28.967Z,12.94
2023-02-08T11:19:02.429Z,13.22
2023-02-08T11:21:41.126Z,14.33
2023-02-08T11:24:08.644Z,12.59
2023-02-08T11:26:41.389Z,11.35
2023-02-08T11:29:19.804Z,10.61
2023-02-08T11:32:00.528Z,10.51
2023-02-08T11:34:38.905Z,18.13
2023-02-08T11:37:26.684Z,21.20
2023-02-08T11:39:58.113Z,22.41
2023-02-08T11:42:34.977Z,18.80
2023-02-08T11:45:03.419Z,15.98
2023-02-08T11:47:37.714Z,17.12
2023-02-08T11:50:09.111Z,19.96
2023-02-08T11:52:43.496Z,19.97
2023-02-08T11:55:19.757Z,23.88
2023-02-08T11:58:12.762Z,25.86
2023-02-08T12:00:41.326Z,26.42
2023-02-08T12:03:18.621Z,27.60
2023-02-08T12:06:40.805Z,28.59
2023-02-08T12:09:25.287Z,30.16
2023-02-08T12:12:09.000Z,30.02
2023-02-08T12:15:03.528Z,31.66
2023-02-08T12:17:41.944Z,33.24
2023-02-08T12:20:33.148Z,31.46
2023-02-08T12:23:00.416Z,33.45
2023-02-08T12:25:46.317Z,32.36
2023-02-08T12:28:23.010Z,33.20
2023-02-08T12:31:04.525Z,33.34
2023-02-08T12:34:01.411Z,33.21
2023-02-08T12:36:48.609Z,34.10
2023-02-08T12:40:02.414Z,34.20
2023-02-08T12:43:03.024Z,34.42
2023-02-08T12:46:19.286Z,34.37
2023-02-08T12:48:49.847Z,33.38
2023-02-08T12:51:53.549Z,33.25
2023-02-08T12:55:03.824Z,33.49
2023-02-08T12:57:33.242Z,32.84
2023-02-08T13:00:15.852Z,33.49
2023-02-08T13:02:57.749Z,33.99
2023-02-08T13:05:35.616Z,32.31
2023-02-08T13:08:30.153Z,32.38
2023-02-08T13:11:19.056Z,33.25
2023-02-08T13:14:00.750Z,32.93
2023-02-08T13:16:39.548Z,33.17
2023-02-08T13:19:34.491Z,34.04
2023-02-08T13:22:05.062Z,34.47
2023-02-08T13:24:39.132Z,34.47
2023-02-08T13:27:11.091Z,34.98
2023-02-08T13:29:38.804Z,34.30
2023-02-08T13:32:29.818Z,32.82
2023-02-08T13:35:16.263Z,33.85
2023-02-08T13:37:54.601Z,30.81
2023-02-08T13:40:28.603Z,32.45
2023-02-08T13:43:05.211Z,31.90
2023-02-08T13:45:42.497Z,31.57
2023-02-08T13:48:17.190Z,31.08
2023-02-08T13:50:57.033Z,30.28
2023-02-08T13:53:39.812Z,29.56
2023-02-08T13:56:13.052Z,29.70
2023-02-08T13:58:49.630Z,27.19
2023-02-08T14:01:30.620Z,27.17
2023-02-08T14:04:12.737Z,27.73
2023-02-08T14:06:54.111Z,26.37
2023-02-08T14:10:17.251Z,26.90
2023-02-08T14:13:09.304Z,26.67
2023-02-08T14:15:43.557Z,27.06
2023-02-08T14:18:27.170Z,26.72
2023-02-08T14:21:07.627Z,26.09
2023-02-08T14:23:40.487Z,26.84
2023-02-08T14:26:24.244Z,25.60
2023-02-08T14:28:59.968Z,25.21
2023-02-08T14:31:45.279Z,25.77
2023-02-08T14:34:38.163Z,24.55
2023-02-08T14:37:34.144Z,24.42
2023-02-08T14:40:24.906Z,24.63
2023-02-08T14:43:01.529Z,23.91
2023-02-08T14:45:36.695Z,23.73
2023-02-08T14:48:10.064Z,23.08
2023-02-08T14:51:03.461Z,22.82
2023-02-08T14:53:42.494Z,22.90
2023-02-08T14:56:24.334Z,20.59
2023-02-08T14:59:15.356Z,21.02
2023-02-08T15:01:46.931Z,21.10
2023-02-08T15:04:18.438Z,20.98
2023-02-08T15:07:19.429Z,20.52
2023-02-08T15:09:47.564Z,19.80
2023-02-08T15:12:35.871Z,19.30
2023-02-08T15:15:05.567Z,18.94
2023-02-08T15:17:41.465Z,17.48
2023-02-08T15:20:26.148Z,16.54
2023-02-08T15:23:21.649Z,15.73
2023-02-08T15:26:04.982Z,14.73
2023-02-08T15:28:36.478Z,13.61
2023-02-08T15:31:15.043Z,12.83
2023-02-08T15:33:43.849Z,12.19
2023-02-08T15:36:36.704Z,11.06
2023-02-08T15:39:23.248Z,10.25
2023-02-08T15:41:51.281Z,9.68
2023-02-08T15:44:26.102Z,9.15
2023-02-08T15:46:55.306Z,8.75
2023-02-08T15:49:35.734Z,8.41
2023-02-08T15:52:05.971Z,8.18
2023-02-08T15:54:33.853Z,7.72
2023-02-08T15:57:54.037Z,7.36
2023-02-08T16:00:34.878Z,6.73
2023-02-08T16:03:18.173Z,6.48
2023-02-08T16:05:59.701Z,6.32
2023-02-08T16:08:32.997Z,6.08
2023-02-08T16:11:20.241Z,5.84
2023-02-08T16:13:52.888Z,5.80
2023-02-08T16:16:40.022Z,5.69
2023-02-08T16:19:29.929Z,5.62
2023-02-08T16:22:15.849Z,5.55
2023-02-08T16:24:43.640Z,5.40
2023-02-08T16:27:27.525Z,5.31
2023-02-08T16:29:55.696Z,5.19
2023-02-08T16:32:37.017Z,5.03
2023-02-08T16:35:29.662Z,4.60
2023-02-08T16:38:02.941Z,4.37
2023-02-08T16:40:54.124Z,4.31
2023-02-08T16:43:26.117Z,4.21
2023-02-08T16:46:12.431Z,3.90
2023-02-08T16:48:49.129Z,3.72
2023-02-08T16:51:26.622Z,3.58
2023-02-08T16:54:07.028Z,3.69
2023-02-08T16:56:41.500Z,3.71
2023-02-08T16:59:11.379Z,3.54
2023-02-08T17:01:39.973Z,3.28
2023-02-08T17:04:07.388Z,3.31
2023-02-08T17:06:38.557Z,3.16
2023-02-08T17:09:09.205Z,3.09
2023-02-08T17:11:37.457Z,2.73
2023-02-08T17:14:06.103Z,2.61
2023-02-08T17:16:36.465Z,2.50
2023-02-08T17:19:05.528Z,2.40
2023-02-08T17:21:33.530Z,2.29
2023-02-08T17:24:01.884Z,2.15
2023-02-08T17:26:45.878Z,1.97
2023-02-08T17:29:13.919Z,2.07
2023-02-08T17:31:41.751Z,2.15
2023-02-08T17:34:09.141Z,2.24
2023-02-08T17:36:37.872Z,2.26
2023-02-08T17:39:06.606Z,2.30
2023-02-08T17:41:35.502Z,2.02
2023-02-08T17:44:04.285Z,1.97
2023-02-08T17:46:32.693Z,1.93
2023-02-08T17:49:01.880Z,1.73
2023-02-08T17:51:30.813Z,1.77
2023-02-08T17:53:58.314Z,1.58
2023-02-08T17:56:28.757Z,1.41
2023-02-08T17:58:56.454Z,1.34
2023-02-08T18:01:27.231Z,1.31
2023-02-08T18:03:55.277Z,1.52
2023-02-08T18:06:25.148Z,1.49
2023-02-08T18:08:54.682Z,1.27
2023-02-08T18:11:24.219Z,1.12
2023-02-08T18:13:54.489Z,0.99
2023-02-08T18:16:28.868Z,0.94
2023-02-08T18:18:59.572Z,0.91
2023-02-08T18:21:30.235Z,0.83
2023-02-08T18:24:04.924Z,0.91
2023-02-08T18:26:34.681Z,1.02
2023-02-08T18:29:03.001Z,0.99
2023-02-08T18:31:31.894Z,1.00
2023-02-08T18:33:59.402Z,0.92
2023-02-08T18:36:27.123Z,0.87
2023-02-08T18:38:55.890Z,0.76
2023-02-08T18:41:27.734Z,0.79
2023-02-08T18:43:57.724Z,0.75
2023-02-08T18:46:29.081Z,0.69
2023-02-08T18:48:56.657Z,0.55
2023-02-08T18:51:26.409Z,0.45
2023-02-08T18:53:55.828Z,0.56
2023-02-08T18:56:27.419Z,0.56
2023-02-08T18:58:59.961Z,0.56
2023-02-08T19:01:27.900Z,0.50
2023-02-08T19:03:56.131Z,0.45
2023-02-08T19:06:28.670Z,0.48
2023-02-08T19:08:59.271Z,0.39
2023-02-08T19:11:41.786Z,0.27
2023-02-08T19:14:14.794Z,0.20
2023-02-08T19:16:43.272Z,-0.04
2023-02-08T19:19:11.044Z,-0.05
2023-02-08T19:21:39.585Z,-0.13
2023-02-08T19:24:07.587Z,-0.11
2023-02-08T19:26:40.007Z,-0.07
2023-02-08T19:29:13.560Z,0.01
2023-02-08T19:31:42.895Z,0.05
2023-02-08T19:34:11.852Z,0.06
2023-02-08T19:36:49.632Z,0.04
2023-02-08T19:39:22.382Z,0.06
2023-02-08T19:41:52.819Z,0.11
2023-02-08T19:44:21.923Z,0.06
2023-02-08T19:46:52.893Z,0.09
2023-02-08T19:49:22.678Z,0.06
2023-02-08T19:51:50.304Z,0.04
2023-02-08T19:54:20.061Z,0.08
2023-02-08T19:56:50.352Z,-0.02
2023-02-08T19:59:26.913Z,-0.34
2023-02-08T20:01:55.512Z,-0.33
2023-02-08T20:04:24.452Z,-0.24
2023-02-08T20:06:54.255Z,-0.25
2023-02-08T20:09:22.779Z,-0.24
2023-02-08T20:11:59.729Z,-0.21
2023-02-08T20:14:30.507Z,-0.26
2023-02-08T20:16:59.452Z,-0.31
2023-02-08T20:19:27.022Z,-0.31
2023-02-08T20:21:54.874Z,-0.29
2023-02-08T20:24:22.335Z,-0.30
2023-02-08T20:26:50.638Z,-0.29
2023-02-08T20:29:18.766Z,-0.38
2023-02-08T20:31:53.662Z,-0.37
2023-02-08T20:34:21.681Z,-0.34
2023-02-08T20:37:05.812Z,-0.34
2023-02-08T20:39:35.982Z,-0.34
2023-02-08T20:42:04.116Z,-0.33
2023-02-08T20:44:31.965Z,-0.48
2023-02-08T20:46:59.671Z,-0.46
2023-02-08T20:49:27.134Z,-0.53
2023-02-08T20:51:55.259Z,-0.52
2023-02-08T20:54:26.664Z,-0.63
2023-02-08T20:56:54.673Z,-0.65
2023-02-08T20:59:23.463Z,-0.73
2023-02-08T21:01:51.939Z,-0.75
2023-02-08T21:04:23.309Z,-0.79
2023-02-08T21:06:52.179Z,-0.83
2023-02-08T21:09:20.512Z,-0.79
2023-02-08T21:11:48.235Z,-0.89
2023-02-08T21:14:21.029Z,-0.86
2023-02-08T21:16:51.916Z,-0.87
2023-02-08T21:19:20.856Z,-0.88
2023-02-08T21:21:58.496Z,-0.91
2023-02-08T21:24:26.559Z,-0.92
2023-02-08T21:26:56.793Z,-0.86
2023-02-08T21:29:25.311Z,-0.96
2023-02-08T21:31:57.592Z,-1.04
2023-02-08T21:34:25.090Z,-1.14
2023-02-08T21:36:52.868Z,-1.07
2023-02-08T21:39:20.426Z,-1.03
2023-02-08T21:41:51.876Z,-1.17
2023-02-08T21:44:19.441Z,-1.17
2023-02-08T21:46:46.997Z,-1.06
2023-02-08T21:49:33.094Z,-1.21
2023-02-08T21:52:19.515Z,-1.25
2023-02-08T21:54:53.146Z,-1.38
2023-02-08T21:57:24.360Z,-1.42
2023-02-08T21:59:57.122Z,-1.34
2023-02-08T22:02:28.815Z,-1.50
2023-02-08T22:05:01.282Z,-1.40
2023-02-08T22:07:43.846Z,-1.56
2023-02-08T22:10:13.835Z,-1.55
2023-02-08T22:12:42.054Z,-1.47
2023-02-08T22:15:13.092Z,-1.47
2023-02-08T22:17:40.678Z,-1.53
2023-02-08T22:20:09.802Z,-1.56
2023-02-08T22:22:37.814Z,-1.53
2023-02-08T22:25:05.911Z,-1.53
2023-02-08T22:27:33.605Z,-1.44
2023-02-08T22:30:00.870Z,-1.47
2023-02-08T22:32:28.459Z,-1.62
2023-02-08T22:34:55.932Z,-1.76
2023-02-08T22:37:23.978Z,-1.79
2023-02-08T22:39:51.375Z,-1.78
2023-02-08T22:42:19.126Z,-1.74
2023-02-08T22:44:46.456Z,-1.69
2023-02-08T22:47:14.401Z,-1.76
2023-02-08T22:49:41.833Z,-1.79
2023-02-08T22:52:10.212Z,-1.84
2023-02-08T22:54:37.809Z,-1.78
2023-02-08T22:57:09.795Z,-1.75
2023-02-08T22:59:40.506Z,-1.69
2023-02-08T23:02:08.231Z,-1.73
2023-02-08T23:04:37.787Z,-1.75
2023-02-08T23:07:05.709Z,-1.85
2023-02-08T23:09:33.058Z,-1.83
2023-02-08T23:12:00.711Z,-1.75
2023-02-08T23:14:28.341Z,-1.96
2023-02-08T23:16:56.405Z,-1.90
2023-02-08T23:19:24.220Z,-2.06
2023-02-08T23:21:52.008Z,-2.02
2023-02-08T23:24:19.537Z,-2.08
2023-02-08T23:26:47.831Z,-2.09
2023-02-08T23:29:15.155Z,-2.20
2023-02-08T23:31:42.915Z,-2.21
2023-02-08T23:34:11.547Z,-2.21
2023-02-08T23:36:39.766Z,-2.27
2023-02-08T23:39:08.182Z,-2.34
2023-02-08T23:41:36.267Z,-2.30
2023-02-08T23:44:04.327Z,-2.33
2023-02-08T23:46:32.518Z,-2.34
2023-02-08T23:48:59.951Z,-2.43
2023-02-08T23:51:27.741Z,-2.33
2023-02-08T23:53:55.393Z,-2.36
2023-02-08T23:56:28.933Z,-2.30
2023-02-08T23:58:59.052Z,-2.24
